sensor_id;sensor_type;location;lat;lon;timestamp;P1;durP1;ratioP1;P2;durP2;ratioP2
64208;SDS011;50527;52.414;13.226;2022-10-31T00:02:21;21.27;;;8.27;;
64208;SDS011;50527;52.414;13.226;2022-10-31T00:04:47;17.23;;;8.20;;
64208;SDS011;50527;52.414;13.226;2022-10-31T00:07:12;18.15;;;8.00;;
64208;SDS011;50527;52.414;13.226;2022-10-31T00:09:38;18.17;;;8.27;;
64208;SDS011;50527;52.414;13.226;2022-10-31T00:12:03;17.17;;;8.07;;
64208;SDS011;50527;52.414;13.226;2022-10-31T00:14:29;15.52;;;7.57;;
64208;SDS011;50527;52.414;13.226;2022-10-31T00:16:54;15.95;;;7.18;;
64208;SDS011;50527;52.414;13.226;2022-10-31T00:19:20;26.30;;;8.40;;
64208;SDS011;50527;52.414;13.226;2022-10-31T00:21:45;20.77;;;8.65;;
64208;SDS011;50527;52.414;13.226;2022-10-31T00:24:11;19.90;;;8.00;;
64208;SDS011;50527;52.414;13.226;2022-10-31T00:26:36;20.35;;;7.35;;
64208;SDS011;50527;52.414;13.226;2022-10-31T00:29:02;16.52;;;7.47;;
64208;SDS011;50527;52.414;13.226;2022-10-31T00:31:28;17.65;;;7.82;;
64208;SDS011;50527;52.414;13.226;2022-10-31T00:33:54;15.50;;;7.18;;
64208;SDS011;50527;52.414;13.226;2022-10-31T00:36:19;13.90;;;6.95;;
64208;SDS011;50527;52.414;13.226;2022-10-31T00:38:46;19.40;;;7.60;;
64208;SDS011;50527;52.414;13.226;2022-10-31T00:41:13;19.75;;;7.40;;
64208;SDS011;50527;52.414;13.226;2022-10-31T00:43:40;19.77;;;7.13;;
64208;SDS011;50527;52.414;13.226;2022-10-31T00:46:06;16.00;;;7.20;;
64208;SDS011;50527;52.414;13.226;2022-10-31T00:48:32;14.07;;;6.82;;
64208;SDS011;50527;52.414;13.226;2022-10-31T00:50:57;15.88;;;7.10;;
64208;SDS011;50527;52.414;13.226;2022-10-31T00:53:23;16.35;;;6.45;;
64208;SDS011;50527;52.414;13.226;2022-10-31T00:55:48;15.82;;;6.95;;
64208;SDS011;50527;52.414;13.226;2022-10-31T00:58:14;16.73;;;6.15;;
64208;SDS011;50527;52.414;13.226;2022-10-31T01:00:39;18.02;;;6.15;;
64208;SDS011;50527;52.414;13.226;2022-10-31T01:03:05;12.20;;;5.93;;
64208;SDS011;50527;52.414;13.226;2022-10-31T01:05:30;15.13;;;6.90;;
64208;SDS011;50527;52.414;13.226;2022-10-31T01:07:56;19.52;;;6.32;;
64208;SDS011;50527;52.414;13.226;2022-10-31T01:10:22;13.75;;;6.05;;
64208;SDS011;50527;52.414;13.226;2022-10-31T01:12:48;13.75;;;5.88;;
64208;SDS011;50527;52.414;13.226;2022-10-31T01:15:15;12.13;;;5.93;;
64208;SDS011;50527;52.414;13.226;2022-10-31T01:17:45;13.88;;;5.90;;
64208;SDS011;50527;52.414;13.226;2022-10-31T01:20:11;13.02;;;5.93;;
64208;SDS011;50527;52.414;13.226;2022-10-31T01:22:38;11.70;;;6.00;;
64208;SDS011;50527;52.414;13.226;2022-10-31T01:25:04;13.10;;;5.82;;
64208;SDS011;50527;52.414;13.226;2022-10-31T01:27:30;15.45;;;5.95;;
64208;SDS011;50527;52.414;13.226;2022-10-31T01:29:56;16.15;;;6.32;;
64208;SDS011;50527;52.414;13.226;2022-10-31T01:32:21;16.02;;;6.35;;
64208;SDS011;50527;52.414;13.226;2022-10-31T01:34:47;16.38;;;5.82;;
64208;SDS011;50527;52.414;13.226;2022-10-31T01:37:12;13.32;;;6.53;;
64208;SDS011;50527;52.414;13.226;2022-10-31T01:39:38;16.30;;;5.88;;
64208;SDS011;50527;52.414;13.226;2022-10-31T01:42:03;15.57;;;5.78;;
64208;SDS011;50527;52.414;13.226;2022-10-31T01:46:58;12.45;;;6.00;;
64208;SDS011;50527;52.414;13.226;2022-10-31T01:49:35;13.20;;;5.78;;
64208;SDS011;50527;52.414;13.226;2022-10-31T01:52:07;15.18;;;5.28;;
64208;SDS011;50527;52.414;13.226;2022-10-31T01:54:51;10.98;;;5.10;;
64208;SDS011;50527;52.414;13.226;2022-10-31T01:57:23;12.57;;;5.45;;
64208;SDS011;50527;52.414;13.226;2022-10-31T01:59:51;17.23;;;5.85;;
64208;SDS011;50527;52.414;13.226;2022-10-31T02:02:20;11.82;;;5.60;;
64208;SDS011;50527;52.414;13.226;2022-10-31T02:04:46;15.15;;;5.40;;
64208;SDS011;50527;52.414;13.226;2022-10-31T02:07:20;14.50;;;5.32;;
64208;SDS011;50527;52.414;13.226;2022-10-31T02:09:50;9.63;;;4.97;;
64208;SDS011;50527;52.414;13.226;2022-10-31T02:12:17;13.13;;;4.80;;
64208;SDS011;50527;52.414;13.226;2022-10-31T02:14:44;17.00;;;5.40;;
64208;SDS011;50527;52.414;13.226;2022-10-31T02:17:11;14.65;;;4.90;;
64208;SDS011;50527;52.414;13.226;2022-10-31T02:19:51;12.85;;;5.20;;
64208;SDS011;50527;52.414;13.226;2022-10-31T02:22:57;11.30;;;5.13;;
64208;SDS011;50527;52.414;13.226;2022-10-31T02:28:37;10.95;;;4.45;;
64208;SDS011;50527;52.414;13.226;2022-10-31T02:31:28;12.38;;;5.10;;
64208;SDS011;50527;52.414;13.226;2022-10-31T02:34:21;9.48;;;4.28;;
64208;SDS011;50527;52.414;13.226;2022-10-31T02:37:13;13.25;;;4.60;;
64208;SDS011;50527;52.414;13.226;2022-10-31T02:39:53;13.10;;;5.00;;
64208;SDS011;50527;52.414;13.226;2022-10-31T02:44:52;15.88;;;5.15;;
64208;SDS011;50527;52.414;13.226;2022-10-31T02:47:29;11.30;;;4.88;;
64208;SDS011;50527;52.414;13.226;2022-10-31T02:50:16;11.38;;;4.80;;
64208;SDS011;50527;52.414;13.226;2022-10-31T02:52:49;10.27;;;4.70;;
64208;SDS011;50527;52.414;13.226;2022-10-31T02:55:59;12.82;;;4.20;;
64208;SDS011;50527;52.414;13.226;2022-10-31T02:58:11;12.57;;;4.50;;
64208;SDS011;50527;52.414;13.226;2022-10-31T03:03:53;16.50;;;5.10;;
64208;SDS011;50527;52.414;13.226;2022-10-31T03:06:33;10.60;;;4.22;;
64208;SDS011;50527;52.414;13.226;2022-10-31T03:09:15;13.98;;;4.32;;
64208;SDS011;50527;52.414;13.226;2022-10-31T03:11:58;16.47;;;4.43;;
64208;SDS011;50527;52.414;13.226;2022-10-31T03:17:31;9.98;;;4.30;;
64208;SDS011;50527;52.414;13.226;2022-10-31T03:20:02;10.13;;;4.38;;
64208;SDS011;50527;52.414;13.226;2022-10-31T03:22:29;12.52;;;4.15;;
64208;SDS011;50527;52.414;13.226;2022-10-31T03:24:58;8.32;;;4.20;;
64208;SDS011;50527;52.414;13.226;2022-10-31T03:27:26;6.90;;;3.83;;
64208;SDS011;50527;52.414;13.226;2022-10-31T03:29:56;8.05;;;3.72;;
64208;SDS011;50527;52.414;13.226;2022-10-31T03:32:27;8.55;;;3.85;;
64208;SDS011;50527;52.414;13.226;2022-10-31T03:34:58;10.10;;;3.90;;
64208;SDS011;50527;52.414;13.226;2022-10-31T03:37:27;10.00;;;4.32;;
64208;SDS011;50527;52.414;13.226;2022-10-31T03:39:54;13.32;;;3.80;;
64208;SDS011;50527;52.414;13.226;2022-10-31T03:42:23;11.70;;;4.05;;
64208;SDS011;50527;52.414;13.226;2022-10-31T03:44:53;10.52;;;3.95;;
64208;SDS011;50527;52.414;13.226;2022-10-31T03:47:31;7.47;;;3.47;;
64208;SDS011;50527;52.414;13.226;2022-10-31T03:49:57;7.07;;;3.55;;
64208;SDS011;50527;52.414;13.226;2022-10-31T03:52:37;9.73;;;3.80;;
64208;SDS011;50527;52.414;13.226;2022-10-31T03:55:19;12.63;;;3.58;;
64208;SDS011;50527;52.414;13.226;2022-10-31T03:57:53;11.25;;;3.17;;
64208;SDS011;50527;52.414;13.226;2022-10-31T04:00:34;16.95;;;3.47;;
64208;SDS011;50527;52.414;13.226;2022-10-31T04:03:05;10.57;;;3.28;;
64208;SDS011;50527;52.414;13.226;2022-10-31T04:05:40;7.78;;;3.20;;
64208;SDS011;50527;52.414;13.226;2022-10-31T04:08:10;10.35;;;3.40;;
64208;SDS011;50527;52.414;13.226;2022-10-31T04:10:40;11.35;;;3.53;;
64208;SDS011;50527;52.414;13.226;2022-10-31T04:13:08;9.13;;;3.13;;
64208;SDS011;50527;52.414;13.226;2022-10-31T04:15:36;10.23;;;3.20;;
64208;SDS011;50527;52.414;13.226;2022-10-31T04:18:03;5.50;;;2.97;;
64208;SDS011;50527;52.414;13.226;2022-10-31T04:20:30;9.10;;;3.00;;
64208;SDS011;50527;52.414;13.226;2022-10-31T04:22:57;7.43;;;3.20;;
64208;SDS011;50527;52.414;13.226;2022-10-31T04:25:23;12.02;;;3.47;;
64208;SDS011;50527;52.414;13.226;2022-10-31T04:27:48;8.88;;;3.08;;
64208;SDS011;50527;52.414;13.226;2022-10-31T04:30:13;9.60;;;3.60;;
64208;SDS011;50527;52.414;13.226;2022-10-31T04:32:39;13.15;;;3.13;;
64208;SDS011;50527;52.414;13.226;2022-10-31T04:35:05;6.85;;;2.97;;
64208;SDS011;50527;52.414;13.226;2022-10-31T04:37:30;6.22;;;3.00;;
64208;SDS011;50527;52.414;13.226;2022-10-31T04:39:56;7.03;;;3.20;;
64208;SDS011;50527;52.414;13.226;2022-10-31T04:42:21;10.88;;;3.00;;
64208;SDS011;50527;52.414;13.226;2022-10-31T04:44:47;7.85;;;3.20;;
64208;SDS011;50527;52.414;13.226;2022-10-31T04:47:12;6.15;;;2.80;;
64208;SDS011;50527;52.414;13.226;2022-10-31T04:49:37;7.38;;;3.00;;
64208;SDS011;50527;52.414;13.226;2022-10-31T04:52:03;9.25;;;3.00;;
64208;SDS011;50527;52.414;13.226;2022-10-31T04:54:29;9.13;;;3.00;;
64208;SDS011;50527;52.414;13.226;2022-10-31T04:56:54;8.13;;;2.95;;
64208;SDS011;50527;52.414;13.226;2022-10-31T04:59:19;7.15;;;2.50;;
64208;SDS011;50527;52.414;13.226;2022-10-31T05:01:45;8.18;;;2.97;;
64208;SDS011;50527;52.414;13.226;2022-10-31T05:04:10;8.23;;;2.50;;
64208;SDS011;50527;52.414;13.226;2022-10-31T05:06:36;9.10;;;2.95;;
64208;SDS011;50527;52.414;13.226;2022-10-31T05:09:01;7.05;;;2.70;;
64208;SDS011;50527;52.414;13.226;2022-10-31T05:11:27;9.00;;;2.72;;
64208;SDS011;50527;52.414;13.226;2022-10-31T05:13:52;9.00;;;2.80;;
64208;SDS011;50527;52.414;13.226;2022-10-31T05:16:18;7.68;;;3.10;;
64208;SDS011;50527;52.414;13.226;2022-10-31T05:18:43;7.63;;;2.42;;
64208;SDS011;50527;52.414;13.226;2022-10-31T05:21:09;8.63;;;2.88;;
64208;SDS011;50527;52.414;13.226;2022-10-31T05:23:34;11.82;;;2.83;;
64208;SDS011;50527;52.414;13.226;2022-10-31T05:26:00;5.65;;;2.63;;
64208;SDS011;50527;52.414;13.226;2022-10-31T05:28:25;7.25;;;2.60;;
64208;SDS011;50527;52.414;13.226;2022-10-31T05:30:51;14.95;;;2.80;;
64208;SDS011;50527;52.414;13.226;2022-10-31T05:33:16;11.93;;;2.97;;
64208;SDS011;50527;52.414;13.226;2022-10-31T05:35:42;7.88;;;2.90;;
64208;SDS011;50527;52.414;13.226;2022-10-31T05:38:07;10.98;;;3.25;;
64208;SDS011;50527;52.414;13.226;2022-10-31T05:40:32;7.95;;;2.60;;
64208;SDS011;50527;52.414;13.226;2022-10-31T05:42:58;9.15;;;2.70;;
64208;SDS011;50527;52.414;13.226;2022-10-31T05:45:23;7.75;;;2.70;;
64208;SDS011;50527;52.414;13.226;2022-10-31T05:47:50;10.82;;;2.78;;
64208;SDS011;50527;52.414;13.226;2022-10-31T05:50:19;10.52;;;2.80;;
64208;SDS011;50527;52.414;13.226;2022-10-31T05:52:46;6.15;;;2.35;;
64208;SDS011;50527;52.414;13.226;2022-10-31T05:55:11;6.90;;;2.80;;
64208;SDS011;50527;52.414;13.226;2022-10-31T05:57:37;6.75;;;2.72;;
64208;SDS011;50527;52.414;13.226;2022-10-31T06:00:03;10.98;;;3.22;;
64208;SDS011;50527;52.414;13.226;2022-10-31T06:02:29;10.25;;;2.97;;
64208;SDS011;50527;52.414;13.226;2022-10-31T06:04:59;8.05;;;3.40;;
64208;SDS011;50527;52.414;13.226;2022-10-31T06:07:25;10.70;;;3.47;;
64208;SDS011;50527;52.414;13.226;2022-10-31T06:09:50;7.05;;;3.30;;
64208;SDS011;50527;52.414;13.226;2022-10-31T06:12:16;7.57;;;3.42;;
64208;SDS011;50527;52.414;13.226;2022-10-31T06:14:41;9.65;;;3.38;;
64208;SDS011;50527;52.414;13.226;2022-10-31T06:17:06;7.45;;;2.75;;
64208;SDS011;50527;52.414;13.226;2022-10-31T06:19:32;11.02;;;3.10;;
64208;SDS011;50527;52.414;13.226;2022-10-31T06:21:57;12.30;;;3.38;;
64208;SDS011;50527;52.414;13.226;2022-10-31T06:24:23;8.70;;;2.92;;
64208;SDS011;50527;52.414;13.226;2022-10-31T06:26:48;9.63;;;3.00;;
64208;SDS011;50527;52.414;13.226;2022-10-31T06:29:14;6.50;;;2.50;;
64208;SDS011;50527;52.414;13.226;2022-10-31T06:31:39;8.68;;;2.72;;
64208;SDS011;50527;52.414;13.226;2022-10-31T06:34:04;9.38;;;2.90;;
64208;SDS011;50527;52.414;13.226;2022-10-31T06:36:30;9.88;;;2.72;;
64208;SDS011;50527;52.414;13.226;2022-10-31T06:38:55;12.85;;;2.97;;
64208;SDS011;50527;52.414;13.226;2022-10-31T06:41:21;6.90;;;2.33;;
64208;SDS011;50527;52.414;13.226;2022-10-31T06:43:46;9.30;;;2.95;;
64208;SDS011;50527;52.414;13.226;2022-10-31T06:46:12;7.82;;;2.35;;
64208;SDS011;50527;52.414;13.226;2022-10-31T06:48:37;7.03;;;2.65;;
64208;SDS011;50527;52.414;13.226;2022-10-31T06:51:04;7.55;;;2.42;;
64208;SDS011;50527;52.414;13.226;2022-10-31T06:53:30;8.50;;;2.97;;
64208;SDS011;50527;52.414;13.226;2022-10-31T06:55:56;7.72;;;2.80;;
64208;SDS011;50527;52.414;13.226;2022-10-31T06:58:21;8.55;;;3.08;;
64208;SDS011;50527;52.414;13.226;2022-10-31T07:00:47;8.95;;;2.88;;
64208;SDS011;50527;52.414;13.226;2022-10-31T07:03:13;8.75;;;2.95;;
64208;SDS011;50527;52.414;13.226;2022-10-31T07:05:40;10.82;;;3.67;;
64208;SDS011;50527;52.414;13.226;2022-10-31T07:08:07;8.75;;;4.00;;
64208;SDS011;50527;52.414;13.226;2022-10-31T07:10:35;5.20;;;2.75;;
64208;SDS011;50527;52.414;13.226;2022-10-31T07:13:05;13.13;;;3.10;;
64208;SDS011;50527;52.414;13.226;2022-10-31T07:15:34;9.85;;;3.00;;
64208;SDS011;50527;52.414;13.226;2022-10-31T07:18:01;10.50;;;2.67;;
64208;SDS011;50527;52.414;13.226;2022-10-31T07:20:28;9.02;;;3.15;;
64208;SDS011;50527;52.414;13.226;2022-10-31T07:22:54;5.70;;;2.65;;
64208;SDS011;50527;52.414;13.226;2022-10-31T07:25:20;9.43;;;3.35;;
64208;SDS011;50527;52.414;13.226;2022-10-31T07:27:45;7.05;;;2.83;;
64208;SDS011;50527;52.414;13.226;2022-10-31T07:30:11;9.55;;;3.80;;
64208;SDS011;50527;52.414;13.226;2022-10-31T07:32:56;9.02;;;4.00;;
64208;SDS011;50527;52.414;13.226;2022-10-31T07:35:22;10.30;;;4.20;;
64208;SDS011;50527;52.414;13.226;2022-10-31T07:37:49;10.68;;;4.60;;
64208;SDS011;50527;52.414;13.226;2022-10-31T07:40:15;10.98;;;4.28;;
64208;SDS011;50527;52.414;13.226;2022-10-31T07:42:42;11.90;;;3.78;;
64208;SDS011;50527;52.414;13.226;2022-10-31T07:45:13;13.18;;;4.18;;
64208;SDS011;50527;52.414;13.226;2022-10-31T07:47:44;9.85;;;3.67;;
64208;SDS011;50527;52.414;13.226;2022-10-31T07:50:11;10.60;;;3.88;;
64208;SDS011;50527;52.414;13.226;2022-10-31T07:52:39;9.05;;;3.70;;
64208;SDS011;50527;52.414;13.226;2022-10-31T07:55:05;13.82;;;4.13;;
64208;SDS011;50527;52.414;13.226;2022-10-31T07:57:31;11.75;;;4.10;;
64208;SDS011;50527;52.414;13.226;2022-10-31T07:59:57;10.75;;;3.88;;
64208;SDS011;50527;52.414;13.226;2022-10-31T08:02:22;11.73;;;3.90;;
64208;SDS011;50527;52.414;13.226;2022-10-31T08:04:49;11.30;;;3.83;;
64208;SDS011;50527;52.414;13.226;2022-10-31T08:07:14;10.68;;;3.72;;
64208;SDS011;50527;52.414;13.226;2022-10-31T08:09:40;13.02;;;3.88;;
64208;SDS011;50527;52.414;13.226;2022-10-31T08:12:05;10.50;;;4.25;;
64208;SDS011;50527;52.414;13.226;2022-10-31T08:14:31;17.25;;;4.57;;
64208;SDS011;50527;52.414;13.226;2022-10-31T08:16:56;14.30;;;4.20;;
64208;SDS011;50527;52.414;13.226;2022-10-31T08:19:22;14.93;;;4.30;;
64208;SDS011;50527;52.414;13.226;2022-10-31T08:21:50;17.23;;;4.45;;
64208;SDS011;50527;52.414;13.226;2022-10-31T08:24:16;10.00;;;3.85;;
64208;SDS011;50527;52.414;13.226;2022-10-31T08:26:42;16.20;;;4.50;;
64208;SDS011;50527;52.414;13.226;2022-10-31T08:29:07;14.55;;;4.22;;
64208;SDS011;50527;52.414;13.226;2022-10-31T08:31:33;12.15;;;4.32;;
64208;SDS011;50527;52.414;13.226;2022-10-31T08:33:59;10.43;;;4.70;;
64208;SDS011;50527;52.414;13.226;2022-10-31T08:36:24;11.85;;;4.55;;
64208;SDS011;50527;52.414;13.226;2022-10-31T08:38:50;12.55;;;4.38;;
64208;SDS011;50527;52.414;13.226;2022-10-31T08:41:15;13.43;;;4.22;;
64208;SDS011;50527;52.414;13.226;2022-10-31T08:43:40;11.63;;;4.10;;
64208;SDS011;50527;52.414;13.226;2022-10-31T08:46:06;14.63;;;4.13;;
64208;SDS011;50527;52.414;13.226;2022-10-31T08:48:31;15.20;;;4.53;;
64208;SDS011;50527;52.414;13.226;2022-10-31T08:50:58;14.05;;;4.40;;
64208;SDS011;50527;52.414;13.226;2022-10-31T08:53:24;12.93;;;4.40;;
64208;SDS011;50527;52.414;13.226;2022-10-31T08:55:50;13.80;;;4.50;;
64208;SDS011;50527;52.414;13.226;2022-10-31T08:58:17;18.63;;;4.68;;
64208;SDS011;50527;52.414;13.226;2022-10-31T09:00:44;13.20;;;4.43;;
64208;SDS011;50527;52.414;13.226;2022-10-31T09:03:13;13.35;;;4.72;;
64208;SDS011;50527;52.414;13.226;2022-10-31T09:05:40;14.13;;;4.97;;
64208;SDS011;50527;52.414;13.226;2022-10-31T09:08:06;11.75;;;4.60;;
64208;SDS011;50527;52.414;13.226;2022-10-31T09:10:32;14.02;;;4.28;;
64208;SDS011;50527;52.414;13.226;2022-10-31T09:13:00;12.70;;;4.20;;
64208;SDS011;50527;52.414;13.226;2022-10-31T09:15:31;12.00;;;4.35;;
64208;SDS011;50527;52.414;13.226;2022-10-31T09:17:59;12.93;;;4.65;;
64208;SDS011;50527;52.414;13.226;2022-10-31T09:20:25;15.13;;;4.40;;
64208;SDS011;50527;52.414;13.226;2022-10-31T09:23:13;10.98;;;4.15;;
64208;SDS011;50527;52.414;13.226;2022-10-31T09:25:46;13.20;;;4.40;;
64208;SDS011;50527;52.414;13.226;2022-10-31T09:28:13;13.18;;;4.45;;
64208;SDS011;50527;52.414;13.226;2022-10-31T09:30:41;14.75;;;4.65;;
64208;SDS011;50527;52.414;13.226;2022-10-31T09:33:09;15.60;;;5.38;;
64208;SDS011;50527;52.414;13.226;2022-10-31T09:35:35;15.25;;;4.72;;
64208;SDS011;50527;52.414;13.226;2022-10-31T09:38:02;9.98;;;4.32;;
64208;SDS011;50527;52.414;13.226;2022-10-31T09:40:36;10.02;;;4.30;;
64208;SDS011;50527;52.414;13.226;2022-10-31T09:45:40;16.67;;;4.72;;
64208;SDS011;50527;52.414;13.226;2022-10-31T09:48:35;12.02;;;4.45;;
64208;SDS011;50527;52.414;13.226;2022-10-31T09:51:06;19.33;;;5.07;;
64208;SDS011;50527;52.414;13.226;2022-10-31T09:56:20;12.38;;;4.20;;
64208;SDS011;50527;52.414;13.226;2022-10-31T09:58:47;15.68;;;5.05;;
64208;SDS011;50527;52.414;13.226;2022-10-31T10:01:29;15.50;;;5.07;;
64208;SDS011;50527;52.414;13.226;2022-10-31T10:04:21;19.52;;;5.22;;
64208;SDS011;50527;52.414;13.226;2022-10-31T10:06:53;13.48;;;4.97;;
64208;SDS011;50527;52.414;13.226;2022-10-31T10:09:24;17.00;;;4.90;;
64208;SDS011;50527;52.414;13.226;2022-10-31T10:11:54;15.35;;;5.68;;
64208;SDS011;50527;52.414;13.226;2022-10-31T10:14:49;17.60;;;5.57;;
64208;SDS011;50527;52.414;13.226;2022-10-31T10:17:54;18.05;;;5.53;;
64208;SDS011;50527;52.414;13.226;2022-10-31T10:20:39;18.65;;;5.32;;
64208;SDS011;50527;52.414;13.226;2022-10-31T10:28:38;17.55;;;5.65;;
64208;SDS011;50527;52.414;13.226;2022-10-31T10:31:20;19.27;;;6.38;;
64208;SDS011;50527;52.414;13.226;2022-10-31T10:33:58;18.55;;;6.05;;
64208;SDS011;50527;52.414;13.226;2022-10-31T10:36:46;19.20;;;6.18;;
64208;SDS011;50527;52.414;13.226;2022-10-31T10:39:23;19.40;;;5.35;;
64208;SDS011;50527;52.414;13.226;2022-10-31T10:41:54;15.10;;;6.03;;
64208;SDS011;50527;52.414;13.226;2022-10-31T10:44:43;16.55;;;5.90;;
64208;SDS011;50527;52.414;13.226;2022-10-31T10:47:41;15.25;;;5.82;;
64208;SDS011;50527;52.414;13.226;2022-10-31T10:50:18;19.77;;;5.93;;
64208;SDS011;50527;52.414;13.226;2022-10-31T10:55:29;14.73;;;6.07;;
64208;SDS011;50527;52.414;13.226;2022-10-31T10:58:03;16.42;;;6.22;;
64208;SDS011;50527;52.414;13.226;2022-10-31T11:00:34;13.48;;;6.25;;
64208;SDS011;50527;52.414;13.226;2022-10-31T11:03:08;13.43;;;5.93;;
64208;SDS011;50527;52.414;13.226;2022-10-31T11:05:51;19.48;;;6.63;;
64208;SDS011;50527;52.414;13.226;2022-10-31T11:08:31;17.73;;;6.40;;
64208;SDS011;50527;52.414;13.226;2022-10-31T11:13:32;18.85;;;6.95;;
64208;SDS011;50527;52.414;13.226;2022-10-31T11:16:03;23.75;;;6.55;;
64208;SDS011;50527;52.414;13.226;2022-10-31T11:18:32;19.20;;;6.60;;
64208;SDS011;50527;52.414;13.226;2022-10-31T11:21:02;13.32;;;5.70;;
64208;SDS011;50527;52.414;13.226;2022-10-31T11:23:29;16.60;;;6.28;;
64208;SDS011;50527;52.414;13.226;2022-10-31T11:25:56;18.92;;;6.00;;
64208;SDS011;50527;52.414;13.226;2022-10-31T11:28:23;17.65;;;5.60;;
64208;SDS011;50527;52.414;13.226;2022-10-31T11:30:51;17.60;;;5.63;;
64208;SDS011;50527;52.414;13.226;2022-10-31T11:33:32;15.93;;;5.45;;
64208;SDS011;50527;52.414;13.226;2022-10-31T11:36:21;21.60;;;5.75;;
64208;SDS011;50527;52.414;13.226;2022-10-31T11:38:49;17.90;;;5.65;;
64208;SDS011;50527;52.414;13.226;2022-10-31T11:41:17;14.00;;;5.03;;
64208;SDS011;50527;52.414;13.226;2022-10-31T11:43:50;17.30;;;5.50;;
64208;SDS011;50527;52.414;13.226;2022-10-31T11:46:19;26.88;;;5.60;;
64208;SDS011;50527;52.414;13.226;2022-10-31T11:48:57;14.68;;;5.10;;
64208;SDS011;50527;52.414;13.226;2022-10-31T11:51:30;18.27;;;5.13;;
64208;SDS011;50527;52.414;13.226;2022-10-31T11:53:58;12.95;;;5.15;;
64208;SDS011;50527;52.414;13.226;2022-10-31T11:56:24;14.18;;;4.65;;
64208;SDS011;50527;52.414;13.226;2022-10-31T11:58:56;20.73;;;5.28;;
64208;SDS011;50527;52.414;13.226;2022-10-31T12:01:25;14.15;;;4.75;;
64208;SDS011;50527;52.414;13.226;2022-10-31T12:04:10;13.43;;;4.82;;
64208;SDS011;50527;52.414;13.226;2022-10-31T12:06:40;14.52;;;4.70;;
64208;SDS011;50527;52.414;13.226;2022-10-31T12:09:21;13.57;;;4.78;;
64208;SDS011;50527;52.414;13.226;2022-10-31T12:17:46;14.80;;;4.68;;
64208;SDS011;50527;52.414;13.226;2022-10-31T12:23:48;12.90;;;5.22;;
64208;SDS011;50527;52.414;13.226;2022-10-31T12:26:26;20.98;;;5.97;;
64208;SDS011;50527;52.414;13.226;2022-10-31T12:29:22;19.33;;;6.10;;
64208;SDS011;50527;52.414;13.226;2022-10-31T12:34:41;16.65;;;6.05;;
64208;SDS011;50527;52.414;13.226;2022-10-31T12:48:33;23.65;;;6.65;;
64208;SDS011;50527;52.414;13.226;2022-10-31T12:51:22;18.23;;;5.85;;
64208;SDS011;50527;52.414;13.226;2022-10-31T13:02:20;17.83;;;6.90;;
64208;SDS011;50527;52.414;13.226;2022-10-31T13:04:49;16.85;;;6.80;;
64208;SDS011;50527;52.414;13.226;2022-10-31T13:07:35;17.83;;;6.65;;
64208;SDS011;50527;52.414;13.226;2022-10-31T13:10:07;17.00;;;6.47;;
64208;SDS011;50527;52.414;13.226;2022-10-31T13:12:44;21.67;;;6.72;;
64208;SDS011;50527;52.414;13.226;2022-10-31T13:15:20;19.90;;;7.18;;
64208;SDS011;50527;52.414;13.226;2022-10-31T13:18:03;21.42;;;7.20;;
64208;SDS011;50527;52.414;13.226;2022-10-31T13:20:37;20.08;;;7.28;;
64208;SDS011;50527;52.414;13.226;2022-10-31T13:25:56;17.17;;;6.70;;
64208;SDS011;50527;52.414;13.226;2022-10-31T13:31:02;20.60;;;6.90;;
64208;SDS011;50527;52.414;13.226;2022-10-31T13:33:29;23.65;;;7.57;;
64208;SDS011;50527;52.414;13.226;2022-10-31T13:36:06;20.63;;;7.95;;
64208;SDS011;50527;52.414;13.226;2022-10-31T13:38:50;21.20;;;7.65;;
64208;SDS011;50527;52.414;13.226;2022-10-31T13:46:39;18.73;;;7.88;;
64208;SDS011;50527;52.414;13.226;2022-10-31T13:49:23;25.73;;;8.00;;
64208;SDS011;50527;52.414;13.226;2022-10-31T13:51:49;22.13;;;8.13;;
64208;SDS011;50527;52.414;13.226;2022-10-31T13:54:30;21.45;;;7.45;;
64208;SDS011;50527;52.414;13.226;2022-10-31T13:56:58;22.52;;;7.93;;
64208;SDS011;50527;52.414;13.226;2022-10-31T13:59:25;21.90;;;8.85;;
64208;SDS011;50527;52.414;13.226;2022-10-31T14:01:57;26.60;;;8.63;;
64208;SDS011;50527;52.414;13.226;2022-10-31T14:04:26;24.73;;;8.80;;
64208;SDS011;50527;52.414;13.226;2022-10-31T14:12:37;23.73;;;9.40;;
64208;SDS011;50527;52.414;13.226;2022-10-31T14:15:18;23.77;;;9.07;;
64208;SDS011;50527;52.414;13.226;2022-10-31T14:17:48;26.98;;;8.98;;
64208;SDS011;50527;52.414;13.226;2022-10-31T14:22:42;23.73;;;8.80;;
64208;SDS011;50527;52.414;13.226;2022-10-31T14:27:52;25.65;;;9.25;;
64208;SDS011;50527;52.414;13.226;2022-10-31T14:30:22;24.08;;;9.30;;
64208;SDS011;50527;52.414;13.226;2022-10-31T14:32:50;27.23;;;9.05;;
64208;SDS011;50527;52.414;13.226;2022-10-31T14:35:18;25.50;;;9.27;;
64208;SDS011;50527;52.414;13.226;2022-10-31T14:37:51;23.83;;;9.40;;
64208;SDS011;50527;52.414;13.226;2022-10-31T14:40:41;31.45;;;9.25;;
64208;SDS011;50527;52.414;13.226;2022-10-31T14:46:32;23.88;;;9.55;;
64208;SDS011;50527;52.414;13.226;2022-10-31T14:54:38;30.55;;;9.70;;
64208;SDS011;50527;52.414;13.226;2022-10-31T14:57:22;28.25;;;9.57;;
64208;SDS011;50527;52.414;13.226;2022-10-31T14:59:56;31.20;;;10.80;;
64208;SDS011;50527;52.414;13.226;2022-10-31T15:05:09;31.02;;;10.32;;
64208;SDS011;50527;52.414;13.226;2022-10-31T15:07:35;27.20;;;10.27;;
64208;SDS011;50527;52.414;13.226;2022-10-31T15:10:05;32.45;;;10.88;;
64208;SDS011;50527;52.414;13.226;2022-10-31T15:12:45;30.75;;;10.55;;
64208;SDS011;50527;52.414;13.226;2022-10-31T15:15:21;36.22;;;11.10;;
64208;SDS011;50527;52.414;13.226;2022-10-31T15:17:57;30.70;;;10.68;;
64208;SDS011;50527;52.414;13.226;2022-10-31T15:20:25;30.20;;;10.45;;
64208;SDS011;50527;52.414;13.226;2022-10-31T15:22:52;29.48;;;10.63;;
64208;SDS011;50527;52.414;13.226;2022-10-31T15:25:22;32.35;;;10.90;;
64208;SDS011;50527;52.414;13.226;2022-10-31T15:27:49;31.00;;;11.38;;
64208;SDS011;50527;52.414;13.226;2022-10-31T15:30:20;32.00;;;11.10;;
64208;SDS011;50527;52.414;13.226;2022-10-31T15:32:46;27.85;;;10.50;;
64208;SDS011;50527;52.414;13.226;2022-10-31T15:35:22;31.35;;;10.95;;
64208;SDS011;50527;52.414;13.226;2022-10-31T15:37:56;35.90;;;11.02;;
64208;SDS011;50527;52.414;13.226;2022-10-31T15:40:23;35.40;;;11.80;;
64208;SDS011;50527;52.414;13.226;2022-10-31T15:42:51;34.10;;;11.55;;
64208;SDS011;50527;52.414;13.226;2022-10-31T15:45:19;36.95;;;11.98;;
64208;SDS011;50527;52.414;13.226;2022-10-31T15:47:59;31.67;;;11.13;;
64208;SDS011;50527;52.414;13.226;2022-10-31T15:53:00;31.60;;;11.65;;
64208;SDS011;50527;52.414;13.226;2022-10-31T15:55:27;31.67;;;11.20;;
64208;SDS011;50527;52.414;13.226;2022-10-31T15:57:55;35.92;;;11.57;;
64208;SDS011;50527;52.414;13.226;2022-10-31T16:03:05;33.03;;;11.25;;
64208;SDS011;50527;52.414;13.226;2022-10-31T16:05:38;32.40;;;11.75;;
64208;SDS011;50527;52.414;13.226;2022-10-31T16:13:32;32.40;;;11.40;;
64208;SDS011;50527;52.414;13.226;2022-10-31T16:16:02;28.80;;;10.80;;
64208;SDS011;50527;52.414;13.226;2022-10-31T16:18:36;25.02;;;9.43;;
64208;SDS011;50527;52.414;13.226;2022-10-31T16:21:03;24.00;;;9.75;;
64208;SDS011;50527;52.414;13.226;2022-10-31T16:23:29;38.45;;;10.75;;
64208;SDS011;50527;52.414;13.226;2022-10-31T16:25:55;25.75;;;10.02;;
64208;SDS011;50527;52.414;13.226;2022-10-31T16:28:21;23.77;;;10.05;;